Terminal Aerodrome Forecast
Issued by NWS

Home | Current Version | Previous Version | Text Only | Print | Product List | Glossary On
Versions: 1 2 3 4 5 6 7 8 9 10 11 12 13 14 15
000
FTUS41 KRNK 060520
TAFBCB
TAF
KBCB 060520Z 0606/0706 12004KT P6SM -RA OVC045
     FM060700 12005KT 6SM -RA BR SCT015 OVC025
     FM060800 11007KT 3SM -RA BR OVC007
     FM061200 10008G16KT 1SM RA OVC003
     FM062100 12007KT 2SM -DZ BR OVC003
     FM070100 VRB04KT 1SM -DZ BR OVC002=

USA.gov is the U.S. government's official web portal to all federal, state and local government web resources and services.